createdAt,value
2019-01-17T00:00:36.383Z,22.02
2019-01-17T00:03:35.831Z,17.65
2019-01-17T00:06:19.131Z,14.33
2019-01-17T00:09:09.195Z,16.07
2019-01-17T00:12:02.523Z,22.87
2019-01-17T00:14:48.994Z,24.87
2019-01-17T00:17:39.223Z,21.07
2019-01-17T00:20:37.233Z,23.10
2019-01-17T00:23:33.418Z,24.50
2019-01-17T00:26:26.425Z,18.50
2019-01-17T00:29:33.562Z,21.80
2019-01-17T00:32:26.908Z,16.30
2019-01-17T00:35:19.844Z,14.93
2019-01-17T00:38:19.345Z,24.43
2019-01-17T00:41:05.906Z,17.67
2019-01-17T00:43:59.410Z,19.95
2019-01-17T00:46:48.467Z,22.67
2019-01-17T00:49:41.743Z,15.67
2019-01-17T00:52:35.060Z,24.17
2019-01-17T00:55:29.084Z,16.77
2019-01-17T00:58:37.795Z,17.70
2019-01-17T01:01:24.224Z,19.67
2019-01-17T01:04:12.041Z,16.52
2019-01-17T01:07:02.245Z,26.93
2019-01-17T01:09:50.597Z,20.32
2019-01-17T01:12:49.667Z,18.13
2019-01-17T01:15:34.122Z,26.63
2019-01-17T01:18:23.145Z,19.10
2019-01-17T01:21:12.587Z,22.70
2019-01-17T01:24:05.905Z,18.60
2019-01-17T01:27:11.274Z,19.75
2019-01-17T01:29:53.951Z,21.10
2019-01-17T01:32:47.181Z,20.83
2019-01-17T01:35:36.328Z,17.55
2019-01-17T01:38:19.045Z,21.80
2019-01-17T01:41:24.593Z,22.90
2019-01-17T01:44:17.490Z,22.90
2019-01-17T01:47:12.764Z,19.63
2019-01-17T01:50:03.100Z,19.23
2019-01-17T01:52:46.889Z,21.07
2019-01-17T01:55:18.125Z,24.53
2019-01-17T01:57:49.398Z,20.23
2019-01-17T02:00:20.703Z,21.68
2019-01-17T02:02:51.963Z,19.90
2019-01-17T02:05:24.893Z,20.72
2019-01-17T02:07:56.148Z,29.53
2019-01-17T02:10:27.570Z,18.75
2019-01-17T02:13:00.592Z,24.72
2019-01-17T02:15:31.869Z,27.27
2019-01-17T02:18:03.120Z,23.13
2019-01-17T02:20:34.563Z,22.43
2019-01-17T02:23:06.094Z,19.80
2019-01-17T02:25:37.456Z,19.43
2019-01-17T02:28:08.713Z,22.33
2019-01-17T02:30:40.069Z,24.33
2019-01-17T02:33:11.542Z,17.07
2019-01-17T02:35:42.875Z,32.00
2019-01-17T02:38:14.218Z,22.02
2019-01-17T02:40:45.559Z,17.60
2019-01-17T02:43:18.525Z,20.83
2019-01-17T02:45:49.796Z,13.37
2019-01-17T02:48:21.044Z,19.67
2019-01-17T02:50:52.375Z,15.17
2019-01-17T02:53:23.660Z,14.50
2019-01-17T02:55:55.091Z,18.47
2019-01-17T02:58:26.525Z,14.27
2019-01-17T03:00:57.849Z,13.85
2019-01-17T03:03:29.148Z,14.55
2019-01-17T03:06:00.497Z,24.53
2019-01-17T03:08:31.910Z,17.77
2019-01-17T03:11:03.179Z,19.10
2019-01-17T03:13:34.593Z,12.10
2019-01-17T03:16:05.879Z,10.33
2019-01-17T03:18:37.245Z,16.87
2019-01-17T03:21:08.725Z,10.87
2019-01-17T03:23:40.015Z,14.85
2019-01-17T03:26:11.351Z,9.50
2019-01-17T03:28:42.739Z,14.70
2019-01-17T03:31:14.072Z,10.38
2019-01-17T03:33:45.455Z,10.75
2019-01-17T03:36:16.696Z,11.75
2019-01-17T03:38:48.034Z,14.50
2019-01-17T03:41:19.415Z,10.27
2019-01-17T03:43:50.655Z,12.73
2019-01-17T03:46:21.891Z,25.20
2019-01-17T03:48:53.527Z,13.90
2019-01-17T03:51:24.754Z,17.45
2019-01-17T03:53:55.992Z,12.87
2019-01-17T03:56:28.926Z,14.63
2019-01-17T03:59:00.227Z,9.67
2019-01-17T04:01:31.583Z,9.10
2019-01-17T04:04:02.967Z,8.65
2019-01-17T04:06:34.269Z,10.03
2019-01-17T04:09:07.472Z,9.73
2019-01-17T04:11:38.823Z,12.43
2019-01-17T04:14:10.081Z,10.10
2019-01-17T04:16:41.422Z,9.97
2019-01-17T04:19:13.198Z,12.03
2019-01-17T04:21:44.556Z,13.33
2019-01-17T04:24:17.486Z,10.28
2019-01-17T04:26:48.729Z,9.50
2019-01-17T04:29:19.968Z,10.20
2019-01-17T04:31:51.239Z,13.77
2019-01-17T04:34:22.485Z,13.10
2019-01-17T04:36:53.828Z,12.33
2019-01-17T04:39:25.121Z,11.40
2019-01-17T04:41:56.509Z,14.73
2019-01-17T04:44:27.934Z,11.20
2019-01-17T04:46:59.253Z,14.10
2019-01-17T04:49:30.601Z,15.43
2019-01-17T04:52:01.995Z,11.53
2019-01-17T04:54:33.322Z,17.52
2019-01-17T04:57:04.655Z,18.60
2019-01-17T04:59:35.928Z,18.03
2019-01-17T05:02:07.272Z,14.55
2019-01-17T05:04:38.527Z,15.33
2019-01-17T05:07:09.965Z,24.30
2019-01-17T05:09:41.607Z,26.30
2019-01-17T05:12:14.635Z,18.93
2019-01-17T05:14:45.846Z,18.30
2019-01-17T05:17:17.242Z,20.47
2019-01-17T05:19:48.539Z,14.60
2019-01-17T05:22:21.381Z,23.23
2019-01-17T05:24:52.868Z,29.18
2019-01-17T05:27:24.234Z,20.20
2019-01-17T05:29:55.486Z,15.85
2019-01-17T05:32:26.914Z,25.20
2019-01-17T05:34:58.285Z,29.87
2019-01-17T05:37:29.625Z,26.63
2019-01-17T05:40:01.015Z,32.77
2019-01-17T05:42:32.290Z,35.65
2019-01-17T05:45:03.989Z,31.13
2019-01-17T05:47:35.312Z,28.87
2019-01-17T05:50:07.807Z,22.90
2019-01-17T05:52:39.133Z,17.00
2019-01-17T05:55:10.668Z,13.58
2019-01-17T05:57:41.931Z,16.97
2019-01-17T06:00:18.744Z,18.87
2019-01-17T06:02:50.015Z,17.52
2019-01-17T06:05:21.344Z,73.00
2019-01-17T06:07:54.244Z,43.23
2019-01-17T06:10:25.673Z,28.77
2019-01-17T06:12:57.289Z,20.97
2019-01-17T06:15:28.845Z,27.40
2019-01-17T06:18:00.282Z,17.30
2019-01-17T06:20:31.572Z,16.67
2019-01-17T06:23:02.920Z,24.90
2019-01-17T06:25:34.287Z,20.33
2019-01-17T06:28:06.468Z,22.83
2019-01-17T06:30:37.790Z,19.60
2019-01-17T06:33:09.214Z,21.83
2019-01-17T06:35:40.493Z,21.25
2019-01-17T06:38:11.819Z,26.60
2019-01-17T06:40:43.191Z,25.37
2019-01-17T06:43:14.528Z,28.00
2019-01-17T06:45:45.890Z,34.77
2019-01-17T06:48:17.247Z,26.37
2019-01-17T06:50:48.498Z,24.27
2019-01-17T06:53:19.779Z,21.55
2019-01-17T06:55:51.246Z,25.00
2019-01-17T06:58:22.563Z,20.30
2019-01-17T07:00:53.847Z,28.12
2019-01-17T07:03:25.106Z,29.52
2019-01-17T07:05:56.372Z,26.90
2019-01-17T07:08:27.719Z,22.87
2019-01-17T07:10:59.120Z,23.55
2019-01-17T07:13:30.591Z,20.80
2019-01-17T07:16:01.967Z,24.52
2019-01-17T07:18:33.317Z,20.70
2019-01-17T07:21:04.715Z,19.03
2019-01-17T07:23:36.357Z,20.60
2019-01-17T07:26:07.624Z,18.80
2019-01-17T07:28:38.889Z,23.95
2019-01-17T07:31:10.212Z,23.77
2019-01-17T07:33:41.494Z,29.32
2019-01-17T07:36:12.855Z,21.37
2019-01-17T07:38:45.899Z,18.10
2019-01-17T07:41:17.203Z,23.23
2019-01-17T07:43:48.526Z,22.00
2019-01-17T07:46:19.844Z,14.13
2019-01-17T07:48:52.699Z,41.13
2019-01-17T07:51:23.952Z,18.90
2019-01-17T07:53:55.837Z,14.10
2019-01-17T07:56:27.394Z,14.60
2019-01-17T07:58:58.968Z,12.27
2019-01-17T08:01:30.256Z,11.90
2019-01-17T08:04:01.648Z,21.50
2019-01-17T08:06:33.019Z,16.40
2019-01-17T08:09:05.979Z,16.70
2019-01-17T08:11:37.279Z,16.03
2019-01-17T08:14:08.625Z,10.30
2019-01-17T08:16:40.027Z,11.53
2019-01-17T08:19:12.093Z,10.72
2019-01-17T08:21:43.388Z,11.37
2019-01-17T08:24:14.879Z,14.40
2019-01-17T08:26:46.232Z,9.63
2019-01-17T08:29:17.546Z,11.73
2019-01-17T08:31:48.894Z,10.23
2019-01-17T08:34:20.144Z,9.03
2019-01-17T08:36:51.388Z,13.17
2019-01-17T08:39:22.701Z,10.97
2019-01-17T08:41:54.094Z,15.00
2019-01-17T08:44:25.425Z,7.57
2019-01-17T08:46:56.834Z,23.80
2019-01-17T08:49:29.850Z,19.00
2019-01-17T08:52:01.104Z,16.33
2019-01-17T08:54:32.342Z,18.13
2019-01-17T08:57:03.716Z,12.13
2019-01-17T08:59:35.035Z,18.27
2019-01-17T09:02:06.408Z,7.80
2019-01-17T09:04:38.556Z,9.05
2019-01-17T09:07:10.110Z,9.03
2019-01-17T09:09:41.458Z,10.13
2019-01-17T09:12:13.174Z,17.25
2019-01-17T09:14:44.618Z,11.17
2019-01-17T09:17:15.910Z,19.03
2019-01-17T09:19:47.337Z,9.93
2019-01-17T09:22:18.748Z,23.53
2019-01-17T09:24:50.118Z,16.50
2019-01-17T09:27:22.304Z,10.20
2019-01-17T09:29:55.602Z,17.30
2019-01-17T09:32:27.949Z,15.37
2019-01-17T09:34:59.278Z,13.10
2019-01-17T09:37:30.600Z,12.40
2019-01-17T09:40:01.851Z,14.67
2019-01-17T09:42:33.208Z,13.90
2019-01-17T09:45:04.794Z,17.50
2019-01-17T09:47:36.141Z,19.73
2019-01-17T09:50:16.098Z,18.20
2019-01-17T09:52:47.350Z,15.87
2019-01-17T09:55:18.625Z,12.70
2019-01-17T09:57:49.913Z,11.90
2019-01-17T10:00:29.389Z,11.60
2019-01-17T10:03:00.789Z,11.20
2019-01-17T10:05:32.025Z,8.90
2019-01-17T10:08:03.288Z,9.20
2019-01-17T10:10:34.627Z,6.73
2019-01-17T10:13:06.139Z,10.93
2019-01-17T10:15:50.672Z,6.60
2019-01-17T10:19:18.243Z,7.53
2019-01-17T10:22:36.408Z,7.33
2019-01-17T10:25:45.712Z,10.10
2019-01-17T10:29:06.711Z,10.20
2019-01-17T10:32:27.259Z,7.53
2019-01-17T10:35:54.778Z,6.03
2019-01-17T10:39:07.133Z,6.70
2019-01-17T10:42:07.960Z,12.23
2019-01-17T10:44:47.794Z,6.13
2019-01-17T10:48:00.171Z,9.75
2019-01-17T10:51:04.702Z,6.10
2019-01-17T10:54:19.701Z,6.00
2019-01-17T10:57:20.771Z,5.30
2019-01-17T11:00:35.980Z,8.80
2019-01-17T11:03:37.481Z,6.20
2019-01-17T11:06:51.131Z,5.90
2019-01-17T11:09:30.896Z,12.47
2019-01-17T11:12:38.935Z,9.53
2019-01-17T11:16:06.753Z,10.43
2019-01-17T11:19:04.110Z,7.67
2019-01-17T11:22:33.645Z,10.60
2019-01-17T11:25:49.289Z,8.43
2019-01-17T11:29:01.396Z,6.60
2019-01-17T11:32:13.617Z,5.83
2019-01-17T11:35:49.033Z,5.33
2019-01-17T11:38:59.028Z,5.73
2019-01-17T11:42:03.042Z,7.83
2019-01-17T11:45:04.504Z,7.10
2019-01-17T11:48:19.926Z,11.07
2019-01-17T11:51:31.506Z,6.60
2019-01-17T11:54:25.874Z,9.23
2019-01-17T11:57:30.387Z,8.23
2019-01-17T12:00:14.743Z,10.30
2019-01-17T12:03:26.262Z,9.97
2019-01-17T12:05:57.496Z,9.70
2019-01-17T12:08:28.799Z,6.83
2019-01-17T12:11:00.258Z,7.50
2019-01-17T12:13:31.720Z,6.37
2019-01-17T12:16:03.068Z,9.37
2019-01-17T12:18:35.902Z,6.93
2019-01-17T12:21:07.323Z,12.50
2019-01-17T12:23:38.659Z,11.63
2019-01-17T12:26:09.981Z,5.23
2019-01-17T12:28:41.344Z,8.10
2019-01-17T12:31:12.692Z,5.80
2019-01-17T12:33:44.032Z,10.53
2019-01-17T12:36:15.393Z,5.53
2019-01-17T12:38:46.631Z,6.77
2019-01-17T12:41:17.964Z,7.15
2019-01-17T12:43:50.825Z,5.80
2019-01-17T12:46:22.084Z,7.93
2019-01-17T12:48:53.369Z,8.60
2019-01-17T12:51:24.695Z,5.27
2019-01-17T12:53:56.008Z,6.40
2019-01-17T12:56:27.242Z,5.10
2019-01-17T12:58:58.473Z,7.93
2019-01-17T13:01:31.406Z,5.63
2019-01-17T13:04:02.755Z,4.73
2019-01-17T13:06:33.998Z,9.40
2019-01-17T13:09:08.621Z,7.47
2019-01-17T13:11:39.927Z,6.03
2019-01-17T13:14:12.960Z,4.63
2019-01-17T13:16:44.271Z,6.00
2019-01-17T13:19:15.612Z,7.67
2019-01-17T13:21:46.958Z,5.50
2019-01-17T13:24:18.543Z,5.80
2019-01-17T13:26:49.916Z,4.60
2019-01-17T13:29:21.284Z,7.43
2019-01-17T13:31:52.531Z,5.57
2019-01-17T13:34:23.782Z,4.20
2019-01-17T13:36:56.357Z,7.50
2019-01-17T13:39:27.700Z,5.53
2019-01-17T13:41:59.141Z,13.20
2019-01-17T13:44:30.503Z,5.93
2019-01-17T13:47:01.831Z,20.27
2019-01-17T13:49:33.198Z,5.13
2019-01-17T13:52:04.754Z,4.73
2019-01-17T13:54:36.020Z,5.37
2019-01-17T13:57:07.830Z,5.43
2019-01-17T13:59:39.113Z,4.47
2019-01-17T14:02:10.342Z,9.77
2019-01-17T14:04:41.573Z,5.23
2019-01-17T14:07:12.814Z,4.63
2019-01-17T14:09:44.098Z,5.43
2019-01-17T14:12:15.529Z,5.97
2019-01-17T14:14:46.791Z,13.60
2019-01-17T14:17:18.504Z,4.80
2019-01-17T14:19:49.814Z,5.23
2019-01-17T14:22:21.143Z,4.70
2019-01-17T14:24:52.476Z,4.60
2019-01-17T14:27:23.779Z,5.92
2019-01-17T14:29:55.625Z,8.67
2019-01-17T14:32:26.993Z,6.00
2019-01-17T14:34:58.327Z,7.60
2019-01-17T14:37:29.716Z,7.47
2019-01-17T14:40:01.015Z,8.25
2019-01-17T14:42:32.356Z,7.83
2019-01-17T14:45:07.445Z,8.20
2019-01-17T14:47:38.789Z,5.35
2019-01-17T14:50:13.860Z,7.20
2019-01-17T14:52:45.131Z,6.27
2019-01-17T14:55:16.370Z,5.13
2019-01-17T14:57:47.719Z,5.13
2019-01-17T15:00:21.011Z,12.37
2019-01-17T15:02:52.263Z,5.47
2019-01-17T15:05:23.589Z,8.83
2019-01-17T15:07:54.928Z,5.43
2019-01-17T15:10:37.949Z,12.00
2019-01-17T15:13:09.334Z,10.20
2019-01-17T15:15:40.673Z,19.93
2019-01-17T15:18:12.022Z,15.30
2019-01-17T15:20:43.543Z,7.70
2019-01-17T15:23:16.447Z,17.95
2019-01-17T15:25:47.851Z,6.27
2019-01-17T15:28:19.214Z,10.05
2019-01-17T15:30:50.523Z,4.93
2019-01-17T15:33:21.844Z,6.75
2019-01-17T15:35:53.137Z,10.20
2019-01-17T15:38:24.487Z,11.07
2019-01-17T15:40:55.882Z,9.30
2019-01-17T15:43:27.189Z,7.60
2019-01-17T15:45:58.518Z,6.67
2019-01-17T15:48:30.047Z,10.67
2019-01-17T15:51:01.356Z,9.83
2019-01-17T15:53:32.681Z,8.83
2019-01-17T15:56:04.008Z,23.40
2019-01-17T15:58:35.279Z,13.68
2019-01-17T16:01:06.700Z,50.53
2019-01-17T16:03:38.024Z,33.13
2019-01-17T16:06:09.282Z,27.20
2019-01-17T16:08:40.552Z,25.50
2019-01-17T16:11:12.309Z,25.30
2019-01-17T16:13:43.664Z,27.20
2019-01-17T16:16:15.044Z,39.47
2019-01-17T16:18:46.349Z,33.10
2019-01-17T16:21:17.669Z,28.62
2019-01-17T16:23:48.932Z,58.27
2019-01-17T16:26:20.343Z,27.93
2019-01-17T16:28:54.578Z,43.13
2019-01-17T16:31:28.708Z,39.80
2019-01-17T16:34:00.144Z,25.23
2019-01-17T16:36:33.008Z,20.57
2019-01-17T16:39:07.710Z,34.60
2019-01-17T16:41:39.041Z,22.00
2019-01-17T16:44:10.395Z,29.43
2019-01-17T16:46:41.758Z,19.07
2019-01-17T16:49:13.120Z,23.73
2019-01-17T16:51:44.417Z,28.33
2019-01-17T16:54:15.792Z,23.63
2019-01-17T16:56:47.239Z,25.00
2019-01-17T16:59:18.511Z,24.73
2019-01-17T17:01:49.767Z,30.87
2019-01-17T17:04:21.079Z,29.73
2019-01-17T17:06:52.444Z,38.33
2019-01-17T17:09:23.773Z,32.00
2019-01-17T17:11:55.030Z,26.73
2019-01-17T17:14:26.296Z,24.87
2019-01-17T17:16:57.643Z,28.60
2019-01-17T17:19:30.594Z,24.77
2019-01-17T17:22:01.959Z,21.03
2019-01-17T17:24:33.219Z,18.23
2019-01-17T17:27:04.582Z,25.47
2019-01-17T17:29:36.116Z,22.10
2019-01-17T17:32:07.378Z,23.13
2019-01-17T17:34:38.714Z,16.73
2019-01-17T17:37:10.059Z,18.20
2019-01-17T17:39:41.327Z,17.80
2019-01-17T17:42:14.228Z,10.50
2019-01-17T17:44:45.517Z,9.67
2019-01-17T17:47:16.767Z,8.78
2019-01-17T17:49:48.241Z,10.00
2019-01-17T17:52:19.578Z,9.87
2019-01-17T17:54:50.934Z,12.70
2019-01-17T17:57:22.280Z,13.47
2019-01-17T17:59:53.677Z,13.50
2019-01-17T18:02:31.830Z,13.03
2019-01-17T18:05:05.592Z,20.80
2019-01-17T18:07:37.089Z,28.13
2019-01-17T18:10:11.987Z,108.27
2019-01-17T18:12:43.406Z,169.67
2019-01-17T18:15:15.341Z,171.20
2019-01-17T18:17:46.705Z,382.73
2019-01-17T18:20:18.282Z,120.87
2019-01-17T18:22:49.618Z,20.60
2019-01-17T18:25:20.960Z,13.90
2019-01-17T18:27:52.311Z,12.50
2019-01-17T18:30:23.798Z,13.17
2019-01-17T18:32:55.290Z,9.27
2019-01-17T18:35:26.581Z,8.17
2019-01-17T18:37:57.879Z,10.67
2019-01-17T18:40:29.302Z,10.40
2019-01-17T18:43:00.637Z,15.23
2019-01-17T18:45:31.979Z,21.90
2019-01-17T18:48:03.609Z,15.33
2019-01-17T18:50:35.233Z,11.37
2019-01-17T18:53:06.633Z,9.43
2019-01-17T18:55:37.896Z,13.80
2019-01-17T18:58:15.395Z,9.15
2019-01-17T19:00:42.226Z,9.00
2019-01-17T19:03:13.560Z,11.63
2019-01-17T19:05:44.824Z,7.80
2019-01-17T19:08:16.218Z,6.60
2019-01-17T19:10:47.622Z,8.03
2019-01-17T19:13:19.179Z,8.25
2019-01-17T19:15:50.674Z,11.57
2019-01-17T19:18:22.147Z,9.77
2019-01-17T19:20:53.404Z,6.63
2019-01-17T19:23:24.734Z,7.00
2019-01-17T19:25:56.076Z,6.50
2019-01-17T19:28:27.478Z,6.10
2019-01-17T19:30:59.259Z,7.77
2019-01-17T19:33:31.830Z,7.28
2019-01-17T19:36:03.204Z,5.93
2019-01-17T19:38:34.603Z,5.40
2019-01-17T19:41:07.700Z,6.13
2019-01-17T19:43:39.018Z,6.47
2019-01-17T19:46:10.469Z,10.17
2019-01-17T19:48:41.812Z,6.77
2019-01-17T19:51:13.264Z,6.07
2019-01-17T19:53:44.699Z,7.23
2019-01-17T19:56:15.956Z,8.43
2019-01-17T19:58:47.261Z,6.50
2019-01-17T20:01:18.557Z,6.50
2019-01-17T20:03:49.888Z,6.07
2019-01-17T20:06:21.341Z,7.47
2019-01-17T20:08:52.611Z,6.90
2019-01-17T20:11:23.856Z,5.93
2019-01-17T20:13:55.275Z,6.43
2019-01-17T20:16:26.515Z,6.00
2019-01-17T20:18:57.786Z,6.50
2019-01-17T20:21:29.211Z,9.03
2019-01-17T20:24:02.100Z,6.90
2019-01-17T20:26:33.382Z,9.43
2019-01-17T20:29:04.745Z,7.83
2019-01-17T20:31:36.180Z,6.50
2019-01-17T20:34:07.526Z,6.67
2019-01-17T20:36:38.903Z,5.93
2019-01-17T20:39:10.414Z,7.40
2019-01-17T20:41:41.795Z,5.85
2019-01-17T20:44:13.098Z,9.60
2019-01-17T20:46:44.505Z,5.33
2019-01-17T20:49:15.819Z,7.93
2019-01-17T20:51:47.064Z,11.60
2019-01-17T20:54:21.553Z,12.30
2019-01-17T20:56:53.114Z,6.93
2019-01-17T20:59:26.115Z,24.03
2019-01-17T21:02:19.536Z,18.27
2019-01-17T21:04:52.181Z,6.07
2019-01-17T21:07:23.573Z,15.35
2019-01-17T21:09:54.873Z,15.00
2019-01-17T21:12:26.137Z,5.10
2019-01-17T21:14:57.440Z,24.87
2019-01-17T21:17:30.055Z,4.07
2019-01-17T21:20:01.390Z,11.60
2019-01-17T21:22:32.743Z,9.43
2019-01-17T21:25:04.343Z,18.30
2019-01-17T21:27:35.896Z,4.97
2019-01-17T21:30:11.185Z,13.33
2019-01-17T21:32:42.438Z,10.17
2019-01-17T21:35:13.845Z,7.03
2019-01-17T21:37:46.009Z,4.10
2019-01-17T21:40:18.742Z,3.93
2019-01-17T21:42:50.069Z,3.63
2019-01-17T21:45:21.457Z,3.90
2019-01-17T21:47:52.686Z,8.53
2019-01-17T21:50:26.275Z,9.97
2019-01-17T21:52:57.560Z,2.93
2019-01-17T21:55:32.121Z,2.42
2019-01-17T21:58:03.419Z,2.07
2019-01-17T22:00:35.663Z,2.93
2019-01-17T22:03:07.914Z,1.30
2019-01-17T22:05:39.136Z,1.17
2019-01-17T22:08:10.447Z,1.43
2019-01-17T22:10:41.777Z,6.13
2019-01-17T22:13:13.244Z,2.47
2019-01-17T22:15:44.468Z,5.53
2019-01-17T22:18:17.454Z,1.17
2019-01-17T22:20:48.952Z,2.30
2019-01-17T22:23:20.347Z,1.03
2019-01-17T22:25:51.708Z,1.17
2019-01-17T22:28:22.947Z,1.17
2019-01-17T22:30:54.677Z,1.53
2019-01-17T22:33:26.088Z,1.35
2019-01-17T22:35:59.041Z,1.10
2019-01-17T22:38:30.496Z,1.03
2019-01-17T22:41:01.938Z,2.67
2019-01-17T22:43:44.003Z,1.92
2019-01-17T22:46:15.185Z,1.40
2019-01-17T22:48:46.644Z,1.50
2019-01-17T22:51:19.609Z,8.15
2019-01-17T22:53:50.876Z,2.07
2019-01-17T22:56:22.573Z,1.60
2019-01-17T22:58:53.835Z,1.20
2019-01-17T23:01:28.492Z,0.60
2019-01-17T23:04:02.350Z,0.73
2019-01-17T23:06:33.635Z,3.20
2019-01-17T23:09:07.981Z,1.00
2019-01-17T23:11:39.403Z,1.60
2019-01-17T23:14:10.707Z,1.00
2019-01-17T23:16:43.182Z,0.83
2019-01-17T23:19:14.600Z,0.60
2019-01-17T23:21:47.471Z,0.73
2019-01-17T23:24:18.991Z,0.70
2019-01-17T23:26:52.477Z,0.80
2019-01-17T23:29:23.925Z,1.77
2019-01-17T23:31:55.181Z,1.30
2019-01-17T23:34:26.537Z,1.95
2019-01-17T23:36:57.868Z,0.73
2019-01-17T23:39:36.169Z,0.60
2019-01-17T23:42:07.541Z,1.12
2019-01-17T23:44:38.819Z,1.23
2019-01-17T23:47:10.230Z,0.90
2019-01-17T23:49:42.595Z,1.73
2019-01-17T23:52:13.839Z,0.80
2019-01-17T23:54:45.179Z,1.77
2019-01-17T23:57:16.541Z,1.40
2019-01-17T23:59:47.920Z,1.20
